Time;durP1;ratioP1;P1;durP2;ratioP2;P2;SDS_P1;SDS_P2;PMS_P1;PMS_P2;Temp;Humidity;BMP_temperature;BMP_pressure;BME280_temperature;BME280_humidity;BME280_pressure;Samples;Min_cycle;Max_cycle;Signal;HPM_P1;HPM_P2
2022/11/03 00:01:57;;;;;;;7.55;2.67;;;11.00;99.90;;;;;;5034617;28;20051;-82
2022/11/03 00:04:23;;;;;;;8.40;2.10;;;11.10;99.90;;;;;;5056736;28;20413;-83
2022/11/03 00:06:51;;;;;;;11.52;2.80;;;11.20;99.90;;;;;;5040623;28;20036;-84
2022/11/03 00:09:18;;;;;;;10.93;3.17;;;11.10;99.90;;;;;;5030544;28;20041;-83
2022/11/03 00:11:45;;;;;;;8.48;2.78;;;11.10;99.90;;;;;;5043067;28;20032;-84
2022/11/03 00:14:12;;;;;;;9.85;2.58;;;11.10;99.90;;;;;;5046814;28;20040;-83
2022/11/03 00:16:38;;;;;;;12.25;2.75;;;11.10;99.90;;;;;;5045411;28;20033;-82
2022/11/03 00:19:05;;;;;;;8.07;2.60;;;11.10;99.90;;;;;;5055933;28;20037;-84
2022/11/03 00:21:31;;;;;;;10.43;2.85;;;11.10;99.90;;;;;;5028739;28;20087;-84
2022/11/03 00:23:57;;;;;;;11.10;2.88;;;11.00;99.90;;;;;;5038517;28;20032;-84
2022/11/03 00:26:25;;;;;;;7.15;2.10;;;11.10;99.90;;;;;;5033295;28;20060;-83
2022/11/03 00:28:56;;;;;;;9.63;2.58;;;11.10;99.90;;;;;;5032122;28;20033;-83
2022/11/03 00:31:24;;;;;;;3.88;2.47;;;11.10;99.90;;;;;;5052411;28;20481;-84
2022/11/03 00:33:50;;;;;;;9.95;3.28;;;11.00;99.90;;;;;;5043618;28;20028;-83
2022/11/03 00:36:22;;;;;;;12.90;2.50;;;11.00;99.90;;;;;;5038241;28;20124;-84
2022/11/03 00:38:49;;;;;;;7.32;2.30;;;11.00;99.90;;;;;;5049358;28;20029;-84
2022/11/03 00:41:15;;;;;;;8.27;2.67;;;11.00;99.90;;;;;;5050242;28;20105;-84
2022/11/03 00:43:41;;;;;;;7.30;2.50;;;11.00;99.90;;;;;;5036064;28;20155;-83
2022/11/03 00:46:08;;;;;;;15.40;3.50;;;11.00;99.90;;;;;;5051415;28;20125;-83
2022/11/03 00:48:35;;;;;;;8.55;2.55;;;11.00;99.90;;;;;;5037538;28;20129;-84
2022/11/03 00:51:11;;;;;;;9.98;2.95;;;10.90;99.90;;;;;;5036745;28;20072;-83
2022/11/03 00:53:42;;;;;;;10.57;2.80;;;11.00;99.90;;;;;;5058058;28;20025;-83
2022/11/03 00:56:14;;;;;;;10.70;2.95;;;10.90;99.90;;;;;;5047254;28;20059;-84
2022/11/03 00:58:41;;;;;;;9.10;2.67;;;10.90;99.90;;;;;;5063286;28;20032;-84
2022/11/03 01:01:13;;;;;;;9.55;3.40;;;10.90;99.90;;;;;;5054860;28;20032;-83
2022/11/03 01:06:48;;;;;;;10.82;3.05;;;10.90;99.90;;;;;;5029732;28;20037;-83
2022/11/03 01:09:11;;;;;;;9.18;2.83;;;10.80;99.90;;;;;;5053030;28;20041;-84
2022/11/03 01:11:42;;;;;;;11.20;3.08;;;10.80;99.90;;;;;;5042588;28;20081;-84
2022/11/03 01:14:14;;;;;;;9.98;3.00;;;10.80;99.90;;;;;;5054707;28;20032;-84
2022/11/03 01:16:40;;;;;;;10.68;2.72;;;10.90;99.90;;;;;;5037852;28;20041;-83
2022/11/03 01:19:06;;;;;;;7.70;2.88;;;10.80;99.90;;;;;;5032850;28;20041;-84
2022/11/03 01:21:32;;;;;;;7.75;2.40;;;10.80;99.90;;;;;;5035445;28;20047;-84
2022/11/03 01:24:02;;;;;;;11.13;2.75;;;10.80;99.90;;;;;;5044465;28;20036;-84
2022/11/03 01:26:28;;;;;;;10.20;2.70;;;10.80;99.90;;;;;;5027342;28;20048;-84
2022/11/03 01:28:54;;;;;;;7.07;2.50;;;10.90;99.90;;;;;;5043203;28;20082;-84
2022/11/03 01:31:22;;;;;;;8.40;2.75;;;10.70;99.90;;;;;;5049202;28;21238;-84
2022/11/03 01:33:50;;;;;;;10.90;3.42;;;10.80;99.90;;;;;;5050819;28;20033;-84
2022/11/03 01:36:16;;;;;;;12.05;2.80;;;10.80;99.90;;;;;;5042466;28;20056;-84
2022/11/03 01:38:42;;;;;;;12.68;3.03;;;10.80;99.90;;;;;;5050697;28;20029;-84
2022/11/03 01:41:16;;;;;;;8.25;2.60;;;10.80;99.90;;;;;;5060336;28;20027;-85
2022/11/03 01:43:42;;;;;;;10.93;3.13;;;10.80;99.90;;;;;;5052703;28;20032;-84
2022/11/03 01:46:08;;;;;;;9.63;2.88;;;10.80;99.90;;;;;;5059724;28;20036;-84
2022/11/03 01:48:35;;;;;;;9.05;2.83;;;10.80;99.90;;;;;;5045076;28;20040;-84
2022/11/03 01:51:04;;;;;;;10.55;2.55;;;10.80;99.90;;;;;;5042739;28;20041;-84
2022/11/03 01:53:30;;;;;;;10.80;2.90;;;10.80;99.90;;;;;;5052313;28;20150;-84
2022/11/03 01:55:57;;;;;;;10.25;2.78;;;10.90;99.90;;;;;;5050043;28;20389;-84
2022/11/03 01:58:29;;;;;;;8.20;2.67;;;11.00;99.90;;;;;;5054358;28;20484;-84
2022/11/03 02:00:58;;;;;;;11.05;2.60;;;10.90;99.90;;;;;;5031222;28;20132;-83
2022/11/03 02:03:25;;;;;;;11.60;3.15;;;11.00;99.90;;;;;;5042878;28;20048;-84
2022/11/03 02:05:52;;;;;;;7.95;2.75;;;11.00;99.90;;;;;;5045807;28;20036;-83
2022/11/03 02:08:26;;;;;;;12.25;3.17;;;11.00;99.90;;;;;;5051438;28;20398;-84
2022/11/03 02:10:52;;;;;;;12.00;3.05;;;10.90;99.90;;;;;;5039858;28;20044;-83
2022/11/03 02:13:23;;;;;;;10.73;2.53;;;11.00;99.90;;;;;;5039023;28;20032;-83
2022/11/03 02:15:56;;;;;;;8.68;2.53;;;10.90;99.90;;;;;;5042942;28;20028;-83
2022/11/03 02:18:27;;;;;;;8.57;2.97;;;10.90;99.90;;;;;;5043684;28;21744;-84
2022/11/03 02:21:13;;;;;;;7.80;2.35;;;10.90;99.90;;;;;;5024842;28;20051;-83
2022/11/03 02:23:47;;;;;;;9.18;2.85;;;10.90;99.90;;;;;;5034492;28;20041;-84
2022/11/03 02:26:15;;;;;;;8.75;2.83;;;10.90;99.90;;;;;;5036503;28;20048;-84
2022/11/03 02:28:41;;;;;;;12.75;2.75;;;10.90;99.90;;;;;;5041137;28;20445;-84
2022/11/03 02:31:36;;;;;;;8.60;2.85;;;10.90;99.90;;;;;;5053394;28;20067;-83
2022/11/03 02:34:09;;;;;;;13.88;2.97;;;10.90;99.90;;;;;;5038173;28;20447;-84
2022/11/03 02:37:06;;;;;;;10.43;3.03;;;10.90;99.90;;;;;;5032279;28;20037;-84
2022/11/03 02:39:46;;;;;;;7.13;2.50;;;10.90;99.90;;;;;;5049535;28;20516;-84
2022/11/03 02:42:14;;;;;;;11.25;2.88;;;10.90;99.90;;;;;;5046190;28;20041;-84
2022/11/03 02:44:42;;;;;;;8.85;2.75;;;10.90;99.90;;;;;;5053254;28;20409;-84
2022/11/03 02:47:11;;;;;;;9.15;2.40;;;10.90;99.90;;;;;;5038805;28;20040;-84
2022/11/03 02:49:38;;;;;;;8.55;2.17;;;10.90;99.90;;;;;;5046410;28;20047;-84
2022/11/03 02:52:06;;;;;;;8.85;3.33;;;11.00;99.90;;;;;;5055801;28;20028;-84
2022/11/03 02:54:38;;;;;;;8.10;2.28;;;11.00;99.90;;;;;;5036054;28;20033;-84
2022/11/03 02:57:17;;;;;;;11.18;2.97;;;11.00;99.90;;;;;;5037427;28;20191;-84
2022/11/03 02:59:52;;;;;;;11.40;2.75;;;11.00;99.90;;;;;;5036439;28;20094;-84
2022/11/03 03:02:22;;;;;;;12.07;2.90;;;11.00;99.90;;;;;;5055900;28;20040;-84
2022/11/03 03:04:55;;;;;;;11.63;3.13;;;11.10;99.90;;;;;;5027593;28;20505;-84
2022/11/03 03:07:26;;;;;;;9.73;3.15;;;11.10;99.90;;;;;;5055297;28;20072;-83
2022/11/03 03:10:12;;;;;;;12.70;2.95;;;11.00;99.90;;;;;;5055816;28;20036;-83
2022/11/03 03:12:42;;;;;;;12.57;3.17;;;11.00;99.90;;;;;;5036893;28;20044;-84
2022/11/03 03:15:08;;;;;;;9.52;2.85;;;11.00;99.90;;;;;;5052200;28;20079;-84
2022/11/03 03:18:02;;;;;;;10.55;3.00;;;11.00;99.90;;;;;;5053591;28;20052;-84
2022/11/03 03:20:44;;;;;;;10.80;3.20;;;11.00;99.90;;;;;;5032225;28;20045;-83
2022/11/03 03:23:23;;;;;;;13.40;3.15;;;11.00;99.90;;;;;;5038029;28;20044;-84
2022/11/03 03:26:03;;;;;;;6.97;2.65;;;11.00;99.90;;;;;;5053587;28;20032;-83
2022/11/03 03:28:35;;;;;;;10.40;2.70;;;10.90;99.90;;;;;;5052862;28;20049;-84
2022/11/03 03:31:05;;;;;;;9.05;2.92;;;11.10;99.90;;;;;;5034441;28;20039;-83
2022/11/03 03:33:32;;;;;;;12.85;2.72;;;11.00;99.90;;;;;;5040845;28;20122;-83
2022/11/03 03:36:00;;;;;;;10.05;2.60;;;10.90;99.90;;;;;;5038587;28;20036;-83
2022/11/03 03:38:32;;;;;;;9.50;2.47;;;11.00;99.90;;;;;;5049554;28;20040;-83
2022/11/03 03:41:01;;;;;;;7.63;2.35;;;10.90;99.90;;;;;;5043231;28;20040;-83
2022/11/03 03:43:28;;;;;;;8.75;2.97;;;11.00;99.90;;;;;;5046423;28;20036;-83
2022/11/03 03:45:59;;;;;;;9.38;3.05;;;11.00;99.90;;;;;;5025863;28;20040;-84
2022/11/03 03:48:25;;;;;;;9.68;2.78;;;11.00;99.90;;;;;;5044610;28;20041;-83
2022/11/03 03:51:01;;;;;;;6.88;2.95;;;11.00;99.90;;;;;;5025737;28;20058;-83
2022/11/03 03:53:29;;;;;;;10.82;3.03;;;10.90;99.90;;;;;;5038432;28;20043;-83
2022/11/03 03:55:56;;;;;;;9.95;3.15;;;10.90;99.90;;;;;;5038038;28;20385;-83
2022/11/03 03:58:21;;;;;;;8.15;2.90;;;10.90;99.90;;;;;;5034455;28;20037;-83
2022/11/03 04:00:47;;;;;;;8.77;2.70;;;10.90;99.90;;;;;;5041543;28;20056;-83
2022/11/03 04:03:19;;;;;;;11.25;3.15;;;10.90;99.90;;;;;;5026222;28;20119;-83
2022/11/03 04:05:45;;;;;;;12.23;3.13;;;10.90;99.90;;;;;;5051903;28;20037;-83
2022/11/03 04:08:13;;;;;;;9.10;3.15;;;10.90;99.90;;;;;;5031045;28;20052;-83
2022/11/03 04:10:39;;;;;;;8.50;2.53;;;10.90;99.90;;;;;;5044841;28;20039;-83
2022/11/03 04:23:47;;;;;;;9.27;3.17;;;10.80;99.90;;;;;;5048674;28;20040;-83
2022/11/03 04:26:18;;;;;;;10.88;3.17;;;10.80;99.90;;;;;;5036992;28;20032;-83
2022/11/03 04:28:44;;;;;;;8.85;2.80;;;10.90;99.90;;;;;;5026971;28;20033;-83
2022/11/03 04:31:16;;;;;;;7.47;2.72;;;10.80;99.90;;;;;;5025272;28;20056;-83
2022/11/03 04:33:43;;;;;;;10.77;2.92;;;10.90;99.90;;;;;;5047311;28;20040;-84
2022/11/03 04:36:20;;;;;;;10.82;2.97;;;10.80;99.90;;;;;;5034846;28;20096;-83
2022/11/03 04:38:47;;;;;;;8.75;3.13;;;10.80;99.90;;;;;;5041940;28;20068;-84
2022/11/03 04:41:19;;;;;;;10.05;3.60;;;10.90;99.90;;;;;;5036491;28;20124;-83
2022/11/03 04:43:45;;;;;;;8.10;2.97;;;10.90;99.90;;;;;;5039190;28;20036;-84
2022/11/03 04:46:42;;;;;;;9.02;2.70;;;10.90;99.90;;;;;;5044631;28;20033;-83
2022/11/03 04:49:13;;;;;;;8.85;2.72;;;11.00;99.90;;;;;;5017194;28;20045;-83
2022/11/03 04:51:40;;;;;;;9.82;3.40;;;11.00;99.90;;;;;;5047804;28;20039;-83
2022/11/03 04:54:23;;;;;;;8.32;3.05;;;11.00;99.90;;;;;;5032362;28;20123;-83
2022/11/03 04:56:49;;;;;;;11.52;3.25;;;11.00;99.90;;;;;;5038198;28;20036;-84
2022/11/03 04:59:16;;;;;;;10.25;2.92;;;11.00;99.90;;;;;;5054775;28;20064;-84
2022/11/03 05:01:45;;;;;;;9.95;3.10;;;11.10;99.90;;;;;;5041607;28;20551;-84
2022/11/03 05:04:13;;;;;;;11.25;2.78;;;11.10;99.90;;;;;;5031413;28;20040;-83
2022/11/03 05:06:40;;;;;;;9.00;3.00;;;11.20;99.90;;;;;;5052598;28;20120;-84
2022/11/03 05:09:16;;;;;;;8.70;2.97;;;11.20;99.90;;;;;;5036857;28;20025;-84
2022/11/03 05:11:49;;;;;;;6.82;3.03;;;11.10;99.90;;;;;;5030468;28;20032;-83
2022/11/03 05:14:28;;;;;;;11.45;3.17;;;11.10;99.90;;;;;;5032257;28;20048;-83
2022/11/03 05:16:55;;;;;;;10.30;2.83;;;11.20;99.90;;;;;;5037486;28;20055;-84
2022/11/03 05:19:20;;;;;;;8.75;3.25;;;11.20;99.90;;;;;;5030737;28;20071;-83
2022/11/03 05:21:48;;;;;;;9.07;3.15;;;11.10;99.90;;;;;;5040195;28;20547;-84
2022/11/03 05:24:15;;;;;;;11.23;3.10;;;11.10;99.90;;;;;;5053088;28;20041;-83
2022/11/03 05:26:41;;;;;;;9.35;2.83;;;11.10;99.90;;;;;;5035690;28;20039;-83
2022/11/03 05:29:15;;;;;;;6.03;2.95;;;11.00;99.90;;;;;;5041691;28;20056;-84
2022/11/03 05:31:42;;;;;;;8.45;3.13;;;11.10;99.90;;;;;;5043005;28;20037;-84
2022/11/03 05:34:26;;;;;;;7.82;3.10;;;11.10;99.90;;;;;;5032569;28;20047;-84
2022/11/03 05:36:51;;;;;;;9.98;3.90;;;11.10;99.90;;;;;;5043141;28;20052;-83
2022/11/03 05:39:30;;;;;;;11.55;2.75;;;11.10;99.90;;;;;;5051723;28;20040;-84
2022/11/03 05:41:58;;;;;;;11.00;3.25;;;11.10;99.90;;;;;;5047650;28;20045;-82
2022/11/03 05:44:35;;;;;;;8.48;3.15;;;11.10;99.90;;;;;;5064181;28;20036;-83
2022/11/03 05:47:07;;;;;;;8.57;3.33;;;11.10;99.90;;;;;;5059268;28;20063;-82
2022/11/03 05:49:34;;;;;;;8.90;2.90;;;11.20;99.90;;;;;;5046032;28;20037;-82
2022/11/03 05:51:59;;;;;;;7.22;2.75;;;11.20;99.90;;;;;;5051324;28;20060;-82
2022/11/03 05:54:31;;;;;;;8.63;2.80;;;11.20;99.90;;;;;;5024137;28;20048;-82
2022/11/03 05:56:57;;;;;;;8.60;2.78;;;11.20;99.90;;;;;;5059768;28;20048;-82
2022/11/03 05:59:27;;;;;;;8.10;3.67;;;11.10;99.90;;;;;;5064556;23;20044;-25
2022/11/03 06:01:54;;;;;;;12.45;3.17;;;11.10;99.90;;;;;;5072883;28;20311;-27
2022/11/03 06:04:26;;;;;;;10.43;3.97;;;11.00;99.90;;;;;;5077578;28;20028;-27
2022/11/03 06:07:02;;;;;;;8.75;2.95;;;11.10;99.90;;;;;;5096718;28;20074;-27
2022/11/03 06:09:30;;;;;;;9.90;2.92;;;11.10;99.90;;;;;;5070753;28;20044;-29
2022/11/03 06:11:59;;;;;;;8.75;2.88;;;11.10;99.90;;;;;;5114731;28;20024;-27
2022/11/03 06:14:29;;;;;;;8.32;2.83;;;11.10;99.90;;;;;;5109084;28;20036;-28
2022/11/03 06:17:05;;;;;;;8.63;2.92;;;11.10;99.90;;;;;;5092108;28;20084;-27
2022/11/03 06:19:44;;;;;;;12.70;3.55;;;11.10;99.90;;;;;;5096528;28;20070;-27
2022/11/03 06:22:36;;;;;;;9.90;3.20;;;11.00;99.90;;;;;;5096325;28;20038;-27
2022/11/03 06:25:30;;;;;;;12.80;3.13;;;11.00;99.90;;;;;;5102578;28;20044;-28
2022/11/03 06:28:03;;;;;;;7.30;3.55;;;11.00;99.90;;;;;;5093704;28;20454;-28
2022/11/03 06:30:32;;;;;;;11.30;3.00;;;11.00;99.90;;;;;;5091816;28;20032;-28
2022/11/03 06:33:09;;;;;;;6.85;2.85;;;11.00;99.90;;;;;;5096520;28;20039;-26
2022/11/03 06:35:35;;;;;;;13.38;3.55;;;11.00;99.90;;;;;;5095490;28;20040;-29
2022/11/03 06:38:01;;;;;;;9.13;3.28;;;11.00;99.90;;;;;;5081172;28;20047;-26
2022/11/03 06:40:34;;;;;;;7.43;3.00;;;11.00;99.90;;;;;;5080153;28;20039;-27
2022/11/03 06:43:13;;;;;;;11.13;3.28;;;11.10;99.90;;;;;;5096323;28;20039;-28
2022/11/03 06:45:52;;;;;;;8.90;3.08;;;11.10;99.90;;;;;;5095681;28;20044;-27
2022/11/03 06:48:27;;;;;;;8.90;3.17;;;11.10;99.90;;;;;;5090343;28;20036;-29
2022/11/03 06:50:53;;;;;;;8.00;3.22;;;11.10;99.90;;;;;;5109345;28;20039;-27
2022/11/03 06:53:24;;;;;;;10.90;3.35;;;11.10;99.90;;;;;;5084489;28;20558;-29
2022/11/03 06:55:50;;;;;;;8.90;3.22;;;11.20;99.90;;;;;;5087118;28;20096;-29
2022/11/03 06:58:33;;;;;;;15.85;4.45;;;11.10;99.90;;;;;;5095082;28;20042;-28
2022/11/03 07:01:02;;;;;;;9.57;3.25;;;11.10;99.90;;;;;;5111014;28;20105;-28
2022/11/03 07:03:36;;;;;;;10.80;3.20;;;11.20;99.90;;;;;;5091554;28;20052;-28
2022/11/03 07:06:23;;;;;;;12.07;3.10;;;11.20;99.90;;;;;;5087268;28;20040;-27
2022/11/03 07:08:57;;;;;;;7.97;3.28;;;11.30;99.90;;;;;;5088615;28;20078;-27
2022/11/03 07:11:24;;;;;;;;;;;11.30;99.90;;;;;;5092213;28;20040;-29
2022/11/03 07:14:00;;;;;;;9.73;3.25;;;11.40;99.90;;;;;;5118484;22;20004;-85
2022/11/03 07:16:34;;;;;;;10.20;3.10;;;11.40;99.90;;;;;;5025505;28;20040;-85
2022/11/03 07:19:02;;;;;;;12.27;4.00;;;11.40;99.90;;;;;;5041757;28;20033;-85
2022/11/03 07:21:43;;;;;;;7.32;3.33;;;11.40;99.90;;;;;;5031401;28;20040;-86
2022/11/03 07:24:44;;;;;;;7.38;3.05;;;11.50;99.90;;;;;;5024137;28;20030;-89
2022/11/03 07:27:30;;;;;;;7.78;2.53;;;11.60;99.90;;;;;;4967672;28;20079;-88
2022/11/03 07:30:04;;;;;;;9.20;3.25;;;11.60;99.90;;;;;;5019273;28;20037;-89
2022/11/03 07:32:32;;;;;;;6.90;2.65;;;11.60;99.90;;;;;;5014435;28;20037;-88
2022/11/03 07:35:15;;;;;;;5.88;2.90;;;11.80;99.90;;;;;;5013325;28;20036;-88
2022/11/03 07:37:43;;;;;;;16.90;3.80;;;11.80;99.90;;;;;;5023098;28;20049;-87
2022/11/03 07:40:30;;;;;;;9.27;3.05;;;12.00;99.90;;;;;;4998337;28;20045;-87
2022/11/03 07:42:59;;;;;;;13.00;3.15;;;11.90;99.90;;;;;;4998342;28;20038;-88
2022/11/03 07:45:42;;;;;;;6.68;2.58;;;12.10;99.90;;;;;;5028772;28;20041;-88
2022/11/03 07:48:14;;;;;;;8.43;3.13;;;12.00;99.90;;;;;;5006567;28;20083;-86
2022/11/03 07:50:39;;;;;;;11.35;3.15;;;12.10;99.90;;;;;;5000352;28;20029;-87
2022/11/03 07:53:30;;;;;;;11.27;3.20;;;12.20;99.90;;;;;;5000680;28;20040;-88
2022/11/03 07:55:55;;;;;;;10.35;3.22;;;12.20;99.90;;;;;;5014351;28;20040;-88
2022/11/03 07:58:25;;;;;;;10.30;3.30;;;12.20;99.90;;;;;;5017933;28;20041;-88
2022/11/03 08:00:57;;;;;;;9.05;3.10;;;12.30;99.90;;;;;;4999952;28;20090;-88
2022/11/03 08:03:40;;;;;;;10.90;3.28;;;12.30;99.90;;;;;;4998734;28;20037;-88
2022/11/03 08:06:07;;;;;;;6.78;2.97;;;12.30;99.90;;;;;;5021510;28;20547;-88
2022/11/03 08:08:33;;;;;;;9.95;3.42;;;12.50;99.90;;;;;;5028585;28;20068;-88
2022/11/03 08:10:58;;;;;;;7.57;3.50;;;12.50;99.90;;;;;;4995770;28;20420;-87
2022/11/03 08:13:24;;;;;;;11.25;3.28;;;12.60;99.90;;;;;;4995872;28;20029;-86
2022/11/03 08:15:49;;;;;;;9.27;3.38;;;12.60;99.90;;;;;;4998597;28;20041;-87
2022/11/03 08:18:15;;;;;;;10.73;3.15;;;12.70;99.90;;;;;;5021079;28;20052;-87
2022/11/03 08:20:40;;;;;;;10.57;3.95;;;12.80;99.90;;;;;;4998594;28;20044;-86
2022/11/03 08:23:06;;;;;;;9.43;3.33;;;12.90;99.90;;;;;;5022396;28;20037;-87
2022/11/03 08:25:32;;;;;;;11.98;3.80;;;12.90;99.90;;;;;;5031117;28;20048;-87
2022/11/03 08:27:59;;;;;;;9.50;3.50;;;13.00;99.90;;;;;;4998442;28;20479;-88
2022/11/03 08:30:25;;;;;;;7.60;3.50;;;13.20;99.90;;;;;;4999577;28;20049;-86
2022/11/03 08:32:50;;;;;;;9.60;3.30;;;13.20;99.90;;;;;;5000336;28;20029;-87
2022/11/03 08:35:16;;;;;;;9.50;3.20;;;13.30;99.90;;;;;;5021192;28;20040;-87
2022/11/03 08:37:41;;;;;;;8.98;3.63;;;13.40;99.90;;;;;;5025756;28;20041;-88
2022/11/03 08:40:08;;;;;;;9.45;3.50;;;13.40;99.90;;;;;;5014471;28;20622;-90
2022/11/03 08:42:33;;;;;;;9.23;3.00;;;13.40;99.90;;;;;;5019834;28;20069;-87
2022/11/03 08:44:59;;;;;;;8.60;3.10;;;13.40;99.90;;;;;;5047047;28;20096;-86
2022/11/03 08:47:24;;;;;;;9.43;3.33;;;13.50;99.90;;;;;;4998509;28;20048;-87
2022/11/03 08:50:12;;;;;;;11.75;3.40;;;13.40;99.90;;;;;;5026297;28;20029;-89
2022/11/03 08:52:37;;;;;;;10.55;3.03;;;13.50;99.90;;;;;;5044203;28;20040;-87
2022/11/03 08:55:03;;;;;;;8.55;3.13;;;13.50;99.90;;;;;;5026184;28;20037;-88
2022/11/03 08:57:29;;;;;;;9.02;3.33;;;13.50;99.90;;;;;;5019212;28;20084;-86
2022/11/03 08:59:55;;;;;;;10.68;2.92;;;13.50;99.90;;;;;;5021068;28;20033;-87
2022/11/03 09:02:21;;;;;;;7.63;2.97;;;13.50;99.90;;;;;;5022919;28;20068;-89
2022/11/03 09:04:47;;;;;;;8.70;3.20;;;13.60;99.90;;;;;;5024413;28;20041;-88
2022/11/03 09:07:12;;;;;;;9.45;3.20;;;13.60;99.90;;;;;;5030772;28;20038;-89
2022/11/03 09:09:38;;;;;;;7.45;2.70;;;13.70;99.90;;;;;;5046624;28;20033;-86
2022/11/03 09:12:04;;;;;;;9.40;3.58;;;13.60;99.90;;;;;;5037110;28;20030;-87
2022/11/03 09:14:29;;;;;;;8.40;2.63;;;13.70;99.90;;;;;;5059345;28;20128;-87
2022/11/03 09:16:55;;;;;;;7.03;3.40;;;13.70;99.90;;;;;;5009706;28;20037;-86
2022/11/03 09:19:20;;;;;;;8.50;3.17;;;13.80;99.90;;;;;;5027052;28;20056;-85
2022/11/03 09:21:46;;;;;;;7.80;2.88;;;13.80;99.90;;;;;;5009857;28;20546;-84
2022/11/03 09:24:12;;;;;;;11.15;2.97;;;13.90;99.90;;;;;;5043103;28;20104;-84
2022/11/03 09:26:37;;;;;;;8.82;3.50;;;14.00;99.90;;;;;;5003231;28;20173;-84
2022/11/03 09:29:03;;;;;;;8.77;2.97;;;14.20;99.90;;;;;;5020213;28;20093;-84
2022/11/03 09:31:29;;;;;;;9.98;2.85;;;14.50;99.90;;;;;;5017504;28;20036;-85
2022/11/03 09:33:54;;;;;;;7.13;3.00;;;14.80;99.90;;;;;;5000271;28;20161;-86
2022/11/03 09:36:20;;;;;;;11.60;3.53;;;15.20;99.90;;;;;;5026691;28;20121;-85
2022/11/03 09:38:46;;;;;;;7.38;3.03;;;15.70;99.90;;;;;;5012948;28;20025;-85
2022/11/03 09:41:16;;;;;;;11.00;3.63;;;16.30;99.90;;;;;;5021741;28;20036;-85
2022/11/03 09:43:46;;;;;;;6.63;2.83;;;16.60;99.90;;;;;;5016437;28;20043;-86
2022/11/03 09:46:13;;;;;;;11.30;3.22;;;17.00;99.90;;;;;;5000406;28;20045;-85
2022/11/03 09:48:39;;;;;;;7.13;2.72;;;17.30;99.90;;;;;;5028777;28;20042;-85
2022/11/03 09:51:05;;;;;;;10.52;2.70;;;17.50;99.90;;;;;;5025196;28;20036;-85
2022/11/03 09:53:31;;;;;;;9.30;3.35;;;17.60;99.90;;;;;;5010515;28;20034;-85
2022/11/03 09:55:56;;;;;;;5.78;2.38;;;17.50;99.90;;;;;;5009367;28;20029;-85
2022/11/03 09:58:22;;;;;;;6.57;2.72;;;17.30;99.90;;;;;;5020777;28;20411;-86
2022/11/03 10:00:48;;;;;;;7.93;2.55;;;17.00;99.90;;;;;;5025188;28;20038;-85
2022/11/03 10:03:16;;;;;;;9.85;2.90;;;16.90;99.90;;;;;;5039071;28;20124;-85
2022/11/03 10:05:44;;;;;;;6.68;2.80;;;16.80;99.90;;;;;;5012827;28;20396;-85
2022/11/03 10:08:24;;;;;;;9.38;2.85;;;16.70;99.90;;;;;;5028742;28;20037;-86
2022/11/03 10:10:50;;;;;;;6.55;2.35;;;16.70;99.90;;;;;;5036178;28;20392;-86
2022/11/03 10:13:42;;;;;;;7.18;2.50;;;16.70;99.90;;;;;;5035220;28;20045;-86
2022/11/03 10:16:11;;;;;;;10.32;3.10;;;16.60;99.90;;;;;;5014981;28;20153;-85
2022/11/03 10:18:37;;;;;;;7.03;2.70;;;16.50;99.90;;;;;;5026751;28;20037;-85
2022/11/03 10:21:17;;;;;;;12.10;2.63;;;16.20;99.90;;;;;;4997552;28;20400;-83
2022/11/03 10:23:43;;;;;;;7.25;3.22;;;16.10;99.90;;;;;;5006911;28;20044;-85
2022/11/03 10:26:17;;;;;;;6.88;2.60;;;15.90;99.90;;;;;;5030205;28;20628;-86
2022/11/03 10:29:04;;;;;;;8.23;2.40;;;15.80;99.90;;;;;;5034414;28;20036;-83
2022/11/03 10:31:36;;;;;;;7.40;2.40;;;15.80;99.90;;;;;;5012744;28;20116;-84
2022/11/03 10:34:02;;;;;;;10.15;2.40;;;16.00;99.90;;;;;;5036364;28;20096;-84
2022/11/03 10:36:30;;;;;;;7.45;2.60;;;16.20;99.90;;;;;;5015176;28;20041;-85
2022/11/03 10:38:56;;;;;;;8.05;2.63;;;16.40;99.90;;;;;;5016030;28;20037;-84
2022/11/03 10:41:25;;;;;;;4.53;2.67;;;16.50;99.90;;;;;;4992327;28;20548;-85
2022/11/03 10:44:15;;;;;;;7.47;2.55;;;16.40;99.90;;;;;;5024585;28;20109;-85
2022/11/03 10:47:01;;;;;;;9.25;2.47;;;16.40;99.90;;;;;;5038649;28;20113;-85
2022/11/03 10:49:32;;;;;;;6.40;2.63;;;16.20;99.90;;;;;;5020531;28;20034;-85
2022/11/03 10:52:37;;;;;;;5.47;2.65;;;16.10;99.90;;;;;;5021361;28;20033;-86
2022/11/03 10:55:20;;;;;;;5.43;2.33;;;16.20;99.90;;;;;;5023075;28;20045;-85
2022/11/03 10:57:46;;;;;;;7.85;2.60;;;16.30;99.90;;;;;;5022701;28;20040;-85
2022/11/03 11:00:16;;;;;;;4.63;2.55;;;16.80;99.90;;;;;;5016601;28;20254;-89
2022/11/03 11:02:45;;;;;;;9.18;2.65;;;17.40;99.50;;;;;;5045171;28;20693;-86
2022/11/03 11:05:19;;;;;;;7.53;2.55;;;17.70;98.90;;;;;;5016572;28;20487;-85
2022/11/03 11:07:46;;;;;;;6.43;2.17;;;18.10;97.40;;;;;;5015547;28;20129;-85
2022/11/03 11:14:23;;;;;;;7.53;2.47;;;18.40;86.00;;;;;;5016374;28;20472;-86
2022/11/03 11:17:00;;;;;;;5.00;2.30;;;18.30;86.10;;;;;;5014479;28;20037;-86
2022/11/03 11:19:27;;;;;;;6.57;2.00;;;18.20;85.30;;;;;;5032576;28;20514;-86
2022/11/03 11:22:13;;;;;;;7.82;2.33;;;18.00;87.90;;;;;;5029444;28;20149;-87
2022/11/03 11:24:42;;;;;;;6.15;2.42;;;17.80;80.40;;;;;;5018843;28;20048;-87
2022/11/03 11:27:30;;;;;;;8.73;2.67;;;17.60;88.80;;;;;;5033792;28;20043;-87
2022/11/03 11:29:57;;;;;;;8.63;2.92;;;17.30;85.20;;;;;;5017035;28;20033;-87
2022/11/03 11:32:38;;;;;;;7.43;2.45;;;17.10;90.40;;;;;;5002607;28;20124;-86
2022/11/03 11:35:07;;;;;;;6.45;2.10;;;16.90;89.00;;;;;;5015691;28;20046;-86
2022/11/03 11:37:35;;;;;;;6.25;2.17;;;16.70;91.20;;;;;;4993359;28;20037;-86
2022/11/03 11:40:02;;;;;;;7.90;2.63;;;16.60;92.40;;;;;;5017337;28;20037;-87
2022/11/03 11:42:28;;;;;;;7.22;2.67;;;16.50;93.50;;;;;;5013332;28;20100;-86
2022/11/03 11:45:03;;;;;;;5.53;2.10;;;16.40;93.80;;;;;;5002755;28;20072;-86
2022/11/03 11:47:42;;;;;;;5.43;2.30;;;16.20;94.30;;;;;;5009056;28;20088;-86
2022/11/03 11:50:10;;;;;;;7.72;2.60;;;16.10;94.50;;;;;;5038706;28;20410;-86
2022/11/03 11:52:49;;;;;;;6.20;1.95;;;16.10;95.80;;;;;;5021415;28;20041;-86
2022/11/03 11:55:33;;;;;;;4.85;2.03;;;16.00;95.50;;;;;;5017774;28;20025;-87
2022/11/03 11:58:01;;;;;;;5.22;2.20;;;15.90;95.70;;;;;;5027280;28;20064;-87
2022/11/03 12:00:33;;;;;;;5.82;2.25;;;15.90;96.50;;;;;;5011322;28;20469;-86
2022/11/03 12:03:00;;;;;;;6.25;2.20;;;15.80;97.00;;;;;;4995814;28;20044;-86
2022/11/03 12:05:29;;;;;;;5.05;1.90;;;15.70;97.70;;;;;;5029615;28;20083;-86
2022/11/03 12:07:55;;;;;;;5.88;2.10;;;15.70;97.40;;;;;;5007032;28;20033;-86
2022/11/03 12:10:26;;;;;;;5.43;2.13;;;15.70;97.60;;;;;;5011873;28;20551;-86
2022/11/03 12:12:57;;;;;;;6.88;2.10;;;15.60;97.40;;;;;;5005411;28;20076;-86
2022/11/03 12:15:55;;;;;;;7.00;2.47;;;15.60;97.70;;;;;;5001699;28;20037;-86
2022/11/03 12:18:34;;;;;;;5.93;1.85;;;15.50;97.00;;;;;;5012546;28;20127;-86
2022/11/03 12:21:02;;;;;;;7.72;2.38;;;15.50;97.80;;;;;;5018269;28;20113;-86
2022/11/03 12:23:41;;;;;;;6.10;2.27;;;15.50;98.30;;;;;;5026307;28;20413;-86
2022/11/03 12:26:18;;;;;;;7.40;2.30;;;15.50;98.60;;;;;;4996276;28;20033;-86
2022/11/03 12:28:43;;;;;;;7.22;2.10;;;15.50;97.60;;;;;;5019584;28;20083;-86
2022/11/03 12:31:11;;;;;;;4.65;2.20;;;15.50;97.80;;;;;;4999907;28;20033;-86
2022/11/03 12:33:38;;;;;;;6.25;2.05;;;15.50;98.50;;;;;;5002872;28;20033;-86
2022/11/03 12:36:28;;;;;;;11.93;2.33;;;15.50;98.30;;;;;;5008163;28;20086;-87
2022/11/03 12:39:16;;;;;;;5.38;2.25;;;15.50;97.80;;;;;;5003776;28;20049;-86
2022/11/03 12:41:51;;;;;;;4.90;2.70;;;15.80;95.80;;;;;;5013122;28;20157;-86
2022/11/03 12:44:22;;;;;;;3.22;1.75;;;16.00;93.90;;;;;;5033324;28;20496;-87
2022/11/03 12:47:32;;;;;;;5.38;2.05;;;16.20;93.20;;;;;;5019733;28;20046;-87
2022/11/03 12:50:18;;;;;;;5.53;2.20;;;16.30;92.40;;;;;;5029901;28;20045;-86
2022/11/03 12:52:56;;;;;;;4.85;1.77;;;16.70;91.80;;;;;;5006050;28;20065;-87
2022/11/03 12:56:01;;;;;;;4.23;1.80;;;17.40;87.90;;;;;;5023980;28;20046;-87
2022/11/03 12:58:36;;;;;;;4.72;1.88;;;17.90;78.10;;;;;;5021819;28;20068;-87
2022/11/03 13:01:31;;;;;;;4.75;2.05;;;18.20;79.80;;;;;;5014792;28;20392;-87
2022/11/03 13:04:12;;;;;;;7.13;1.70;;;18.40;76.20;;;;;;5039695;28;20403;-87
2022/11/03 13:06:42;;;;;;;6.45;2.20;;;18.30;73.90;;;;;;4985977;28;20049;-87
2022/11/03 13:20:59;;;;;;;5.68;2.10;;;18.40;69.20;;;;;;5030350;28;20036;-86
2022/11/03 13:27:44;;;;;;;5.13;1.90;;;17.80;72.40;;;;;;4931717;28;20531;-86
2022/11/03 13:30:11;;;;;;;3.50;1.60;;;17.40;75.60;;;;;;5003676;28;20140;-85
2022/11/03 13:32:37;;;;;;;6.95;1.95;;;17.10;76.50;;;;;;5017338;28;20041;-85
2022/11/03 13:35:03;;;;;;;3.35;1.98;;;16.90;77.50;;;;;;5034744;28;20056;-85
2022/11/03 13:37:29;;;;;;;4.57;1.80;;;16.80;78.40;;;;;;5001695;28;20087;-85
2022/11/03 13:39:54;;;;;;;5.50;2.20;;;16.70;79.60;;;;;;5000607;28;20037;-85